createdAt,value
2019-05-16T00:01:20.251Z,98247.64
2019-05-16T00:03:51.442Z,98246.27
2019-05-16T00:06:22.562Z,98244.64
2019-05-16T00:08:52.698Z,98238.19
2019-05-16T00:11:23.900Z,98237.78
2019-05-16T00:13:54.873Z,98235.19
2019-05-16T00:16:26.029Z,98229.03
2019-05-16T00:18:58.297Z,98221.99
2019-05-16T00:21:29.543Z,98225.03
2019-05-16T00:24:00.511Z,98212.62
2019-05-16T00:26:31.568Z,98211.25
2019-05-16T00:29:02.470Z,98208.66
2019-05-16T00:31:33.787Z,98201.83
2019-05-16T00:34:04.775Z,98197.98
2019-05-16T00:36:38.158Z,98196.64
2019-05-16T00:39:08.600Z,98195.75
2019-05-16T00:41:38.724Z,98198.23
2019-05-16T00:44:09.940Z,98191.41
2019-05-16T00:46:40.893Z,98193.09
2019-05-16T00:49:12.132Z,98187.52
2019-05-16T00:51:43.105Z,98182.38
2019-05-16T00:54:14.241Z,98181.93
2019-05-16T00:56:45.963Z,98184.08
2019-05-16T00:59:18.392Z,98179.30
2019-05-16T01:01:50.332Z,98181.48
2019-05-16T01:04:21.549Z,98167.25
2019-05-16T01:06:52.516Z,98165.59
2019-05-16T01:09:23.791Z,98165.19
2019-05-16T01:11:54.769Z,98159.52
2019-05-16T01:14:25.067Z,98156.06
2019-05-16T01:16:58.132Z,98161.73
2019-05-16T01:19:28.808Z,98157.52
2019-05-16T01:21:59.880Z,98153.22
2019-05-16T01:24:30.754Z,98155.77
2019-05-16T01:27:01.924Z,98151.81
2019-05-16T01:29:32.891Z,98151.88
2019-05-16T01:32:04.200Z,98144.95
2019-05-16T01:34:35.069Z,98135.59
2019-05-16T01:37:08.282Z,98133.41
2019-05-16T01:39:38.895Z,98134.30
2019-05-16T01:42:10.197Z,98132.55
2019-05-16T01:44:41.047Z,98124.73
2019-05-16T01:47:11.094Z,98121.73
2019-05-16T01:49:43.581Z,98120.35
2019-05-16T01:52:14.209Z,98116.95
2019-05-16T01:54:45.364Z,98116.98
2019-05-16T01:57:18.109Z,98107.91
2019-05-16T01:59:49.211Z,98103.17
2019-05-16T02:02:20.165Z,98103.20
2019-05-16T02:04:51.473Z,98099.31
2019-05-16T02:07:22.346Z,98096.84
2019-05-16T02:09:53.667Z,98092.50
2019-05-16T02:12:24.559Z,98081.61
2019-05-16T02:14:55.835Z,98083.47
2019-05-16T02:17:28.880Z,98075.32
2019-05-16T02:19:59.778Z,98071.47
2019-05-16T02:22:30.725Z,98072.69
2019-05-16T02:25:00.876Z,98069.28
2019-05-16T02:27:32.050Z,98067.95
2019-05-16T02:30:03.380Z,98064.09
2019-05-16T02:32:34.645Z,98064.50
2019-05-16T02:35:06.712Z,98068.39
2019-05-16T02:37:41.767Z,98063.97
2019-05-16T02:40:12.468Z,98057.48
2019-05-16T02:42:43.819Z,98057.05
2019-05-16T02:45:15.075Z,98053.64
2019-05-16T02:47:46.199Z,98049.39
2019-05-16T02:50:17.267Z,98048.13
2019-05-16T02:52:51.400Z,98051.53
2019-05-16T02:55:21.822Z,98051.13
2019-05-16T02:57:52.173Z,98044.24
2019-05-16T03:00:42.541Z,98046.46
2019-05-16T03:03:12.087Z,98043.91
2019-05-16T03:05:44.193Z,98037.92
2019-05-16T03:08:15.631Z,98036.58
2019-05-16T03:10:51.756Z,98035.77
2019-05-16T03:13:22.675Z,98036.17
2019-05-16T03:15:54.558Z,98042.09
2019-05-16T03:18:26.507Z,98034.44
2019-05-16T03:21:00.577Z,98032.28
2019-05-16T03:23:31.834Z,98029.13
2019-05-16T03:26:02.956Z,98027.50
2019-05-16T03:28:33.917Z,98024.87
2019-05-16T03:31:06.325Z,98018.87
2019-05-16T03:33:43.534Z,98021.11
2019-05-16T03:36:14.830Z,98024.63
2019-05-16T03:38:42.912Z,98016.92
2019-05-16T03:41:12.934Z,98018.23
2019-05-16T03:43:44.225Z,98019.52
2019-05-16T03:46:15.173Z,98017.33
2019-05-16T03:48:46.304Z,98015.92
2019-05-16T03:51:17.200Z,98011.13
2019-05-16T03:53:50.713Z,98005.95
2019-05-16T03:56:21.871Z,98008.91
2019-05-16T03:58:53.365Z,98007.16
2019-05-16T04:01:24.300Z,98008.34
2019-05-16T04:03:55.542Z,98010.89
2019-05-16T04:06:26.638Z,98008.30
2019-05-16T04:09:01.232Z,98006.55
2019-05-16T04:11:32.113Z,98003.34
2019-05-16T04:14:02.322Z,98005.00
2019-05-16T04:16:33.547Z,97999.33
2019-05-16T04:19:04.908Z,98001.35
2019-05-16T04:21:35.974Z,97999.52
2019-05-16T04:24:06.948Z,98000.28
2019-05-16T04:26:41.330Z,98000.16
2019-05-16T04:29:12.603Z,98000.92
2019-05-16T04:31:43.653Z,97994.27
2019-05-16T04:34:14.648Z,97992.97
2019-05-16T04:36:45.767Z,97991.00
2019-05-16T04:39:16.721Z,97992.56
2019-05-16T04:41:50.734Z,97989.39
2019-05-16T04:44:21.252Z,97987.56
2019-05-16T04:46:52.876Z,97985.77
2019-05-16T04:49:23.855Z,97977.98
2019-05-16T04:51:53.885Z,97982.64
2019-05-16T04:54:25.156Z,97980.34
2019-05-16T04:56:56.029Z,97976.41
2019-05-16T04:59:27.081Z,97979.33
2019-05-16T05:02:01.644Z,97980.16
2019-05-16T05:04:30.945Z,97979.04
2019-05-16T05:07:01.961Z,97978.94
2019-05-16T05:09:33.198Z,97977.91
2019-05-16T05:12:04.897Z,97980.01
2019-05-16T05:14:36.552Z,97982.68
2019-05-16T05:17:07.418Z,97974.20
2019-05-16T05:19:41.282Z,97971.23
2019-05-16T05:22:11.110Z,97970.64
2019-05-16T05:24:41.235Z,97971.70
2019-05-16T05:27:12.543Z,97963.25
2019-05-16T05:29:43.403Z,97964.70
2019-05-16T05:32:14.717Z,97965.13
2019-05-16T05:34:45.594Z,97966.95
2019-05-16T05:37:16.771Z,97966.11
2019-05-16T05:39:47.706Z,97964.22
2019-05-16T05:42:20.231Z,97963.52
2019-05-16T05:44:52.215Z,97963.76
2019-05-16T05:47:23.415Z,97963.91
2019-05-16T05:49:54.291Z,97961.76
2019-05-16T05:52:25.551Z,97966.45
2019-05-16T05:54:56.509Z,97959.00
2019-05-16T05:57:26.596Z,97953.34
2019-05-16T05:59:57.775Z,97962.02
2019-05-16T06:02:30.924Z,97954.81
2019-05-16T06:05:01.854Z,97957.66
2019-05-16T06:07:32.881Z,97957.63
2019-05-16T06:10:06.751Z,97954.91
2019-05-16T06:12:37.735Z,97948.73
2019-05-16T06:15:12.592Z,97945.09
2019-05-16T06:17:42.006Z,97948.28
2019-05-16T06:20:14.968Z,97940.47
2019-05-16T06:22:46.091Z,97943.19
2019-05-16T06:25:17.348Z,97939.04
2019-05-16T06:27:50.960Z,97940.45
2019-05-16T06:30:21.434Z,97932.52
2019-05-16T06:32:52.839Z,97930.70
2019-05-16T06:35:24.227Z,97927.86
2019-05-16T06:37:55.327Z,97927.08
2019-05-16T06:40:26.241Z,97929.75
2019-05-16T06:42:57.380Z,97924.07
2019-05-16T06:45:28.335Z,97925.83
2019-05-16T06:48:00.717Z,97928.69
2019-05-16T06:50:31.849Z,97930.21
2019-05-16T06:53:02.977Z,97926.85
2019-05-16T06:55:33.956Z,97918.42
2019-05-16T06:58:05.423Z,97919.60
2019-05-16T07:00:36.513Z,97915.27
2019-05-16T07:03:09.329Z,97916.89
2019-05-16T07:05:40.598Z,97911.82
2019-05-16T07:08:10.762Z,97911.33
2019-05-16T07:10:41.881Z,97913.56
2019-05-16T07:13:12.884Z,97910.27
2019-05-16T07:15:44.109Z,97910.82
2019-05-16T07:18:15.010Z,97909.30
2019-05-16T07:20:46.228Z,97910.82
2019-05-16T07:23:17.186Z,97908.20
2019-05-16T07:25:50.513Z,97907.61
2019-05-16T07:28:21.288Z,97904.48
2019-05-16T07:30:52.693Z,97898.70
2019-05-16T07:33:23.606Z,97899.92
2019-05-16T07:35:54.709Z,97893.59
2019-05-16T07:38:25.658Z,97895.20
2019-05-16T07:40:55.922Z,97896.52
2019-05-16T07:43:27.107Z,97900.02
2019-05-16T07:46:00.229Z,97895.20
2019-05-16T07:48:31.972Z,97889.56
2019-05-16T07:51:03.039Z,97887.22
2019-05-16T07:53:34.202Z,97879.63
2019-05-16T07:56:05.304Z,97876.16
2019-05-16T07:58:36.678Z,97865.52
2019-05-16T08:01:11.698Z,97870.64
2019-05-16T08:03:43.998Z,97868.41
2019-05-16T08:06:13.683Z,97867.86
2019-05-16T08:08:44.760Z,97865.88
2019-05-16T08:11:15.659Z,97868.75
2019-05-16T08:13:46.259Z,97871.09
2019-05-16T08:16:17.564Z,97860.67
2019-05-16T08:18:50.611Z,97866.64
2019-05-16T08:21:21.358Z,97866.44
2019-05-16T08:23:52.246Z,97872.37
2019-05-16T08:26:23.328Z,97876.49
2019-05-16T08:28:54.329Z,97871.58
2019-05-16T08:31:25.543Z,97871.88
2019-05-16T08:33:56.548Z,97872.05
2019-05-16T08:36:27.870Z,97869.72
2019-05-16T08:39:01.091Z,97860.69
2019-05-16T08:44:04.922Z,97862.36
2019-05-16T08:46:35.040Z,97854.67
2019-05-16T08:49:06.353Z,97854.72
2019-05-16T08:50:11.866Z,97856.81
2019-05-16T08:51:37.390Z,97850.63
2019-05-16T08:54:14.934Z,97854.19
2019-05-16T08:56:44.223Z,97841.16
2019-05-16T08:59:14.323Z,97842.30
2019-05-16T09:01:56.822Z,97839.30
2019-05-16T09:04:24.624Z,97836.42
2019-05-16T09:06:53.854Z,97829.02
2019-05-16T09:09:41.580Z,97830.11
2019-05-16T09:11:57.655Z,97823.20
2019-05-16T09:14:35.242Z,97825.73
2019-05-16T09:17:01.378Z,97826.30
2019-05-16T09:19:32.626Z,97819.69
2019-05-16T09:22:03.647Z,97819.02
2019-05-16T09:24:33.763Z,97815.63
2019-05-16T09:27:10.802Z,97811.71
2019-05-16T09:29:37.592Z,97802.23
2019-05-16T09:32:16.597Z,97811.48
2019-05-16T09:34:41.498Z,97797.71
2019-05-16T09:37:12.882Z,97805.91
2019-05-16T09:39:43.737Z,97809.59
2019-05-16T09:42:18.221Z,97800.09
2019-05-16T09:44:52.092Z,97804.94
2019-05-16T09:47:23.389Z,97802.06
2019-05-16T09:49:54.725Z,97797.47
2019-05-16T09:52:27.368Z,97798.20
2019-05-16T09:54:58.339Z,97797.34
2019-05-16T09:57:29.519Z,97795.86
2019-05-16T10:00:00.546Z,97796.79
2019-05-16T10:02:31.228Z,97795.67
2019-05-16T10:05:02.547Z,97794.92
2019-05-16T10:07:33.625Z,97789.42
2019-05-16T10:10:06.620Z,97792.88
2019-05-16T10:12:37.701Z,97791.28
2019-05-16T10:15:09.375Z,97789.30
2019-05-16T10:17:40.372Z,97789.61
2019-05-16T10:20:13.401Z,97783.31
2019-05-16T10:22:50.058Z,97784.83
2019-05-16T10:25:19.587Z,97788.83
2019-05-16T10:27:50.769Z,97787.92
2019-05-16T10:30:22.159Z,97789.98
2019-05-16T10:32:53.137Z,97786.30
2019-05-16T10:35:23.258Z,97783.13
2019-05-16T10:37:54.502Z,97775.10
2019-05-16T10:40:27.412Z,97773.81
2019-05-16T10:42:59.476Z,97779.55
2019-05-16T10:45:30.696Z,97774.80
2019-05-16T10:48:01.941Z,97774.81
2019-05-16T10:50:32.988Z,97774.66
2019-05-16T10:53:27.724Z,97774.45
2019-05-16T10:55:36.974Z,97776.81
2019-05-16T10:58:08.087Z,97773.37
2019-05-16T11:01:05.329Z,97771.84
2019-05-16T11:03:12.241Z,97770.02
2019-05-16T11:05:43.256Z,97771.48
2019-05-16T11:08:14.485Z,97769.13
2019-05-16T11:10:47.634Z,97762.98
2019-05-16T11:13:20.305Z,97768.92
2019-05-16T11:15:53.093Z,97764.26
2019-05-16T11:18:26.926Z,97766.07
2019-05-16T11:20:58.081Z,97765.09
2019-05-16T11:23:31.550Z,97767.36
2019-05-16T11:26:02.863Z,97768.34
2019-05-16T11:28:36.535Z,97763.91
2019-05-16T11:31:07.603Z,97769.60
2019-05-16T11:33:39.445Z,97770.56
2019-05-16T11:36:12.893Z,97766.80
2019-05-16T11:38:43.927Z,97767.22
2019-05-16T11:41:16.807Z,97765.02
2019-05-16T11:43:47.844Z,97761.98
2019-05-16T11:46:19.132Z,97764.83
2019-05-16T11:48:50.291Z,97766.53
2019-05-16T11:51:20.458Z,97768.55
2019-05-16T11:53:53.074Z,97765.94
2019-05-16T11:56:24.048Z,97765.86
2019-05-16T11:58:56.983Z,97766.47
2019-05-16T12:01:29.702Z,97762.36
2019-05-16T12:04:00.858Z,97766.75
2019-05-16T12:06:37.378Z,97760.78
2019-05-16T12:09:08.581Z,97761.34
2019-05-16T12:11:39.532Z,97760.24
2019-05-16T12:14:10.841Z,97755.34
2019-05-16T12:16:41.930Z,97761.02
2019-05-16T12:19:13.035Z,97759.77
2019-05-16T12:21:45.409Z,97755.09
2019-05-16T12:24:32.311Z,97758.37
2019-05-16T12:26:51.961Z,97758.44
2019-05-16T12:29:22.909Z,97751.52
2019-05-16T12:31:59.673Z,97753.75
2019-05-16T12:34:26.921Z,97756.58
2019-05-16T12:36:58.107Z,97757.59
2019-05-16T12:39:30.566Z,97756.58
2019-05-16T12:42:02.367Z,97757.83
2019-05-16T12:44:33.397Z,97753.73
2019-05-16T12:47:07.382Z,97758.15
2019-05-16T12:49:37.459Z,97750.63
2019-05-16T12:52:10.167Z,97754.70
2019-05-16T12:54:41.174Z,97743.13
2019-05-16T12:57:12.281Z,97746.06
2019-05-16T12:59:51.934Z,97744.25
2019-05-16T13:02:21.858Z,97736.44
2019-05-16T13:04:53.203Z,97738.47
2019-05-16T13:07:26.767Z,97738.20
2019-05-16T13:09:57.189Z,97742.16
2019-05-16T13:12:28.084Z,97739.84
2019-05-16T13:14:59.456Z,97733.95
2019-05-16T13:17:30.497Z,97732.38
2019-05-16T13:20:01.883Z,97729.02
2019-05-16T13:22:32.785Z,97722.40
2019-05-16T13:25:07.372Z,97718.43
2019-05-16T13:27:38.098Z,97714.69
2019-05-16T13:30:11.347Z,97706.48
2019-05-16T13:32:42.295Z,97709.41
2019-05-16T13:35:16.719Z,97702.23
2019-05-16T13:37:47.702Z,97704.83
2019-05-16T13:40:19.236Z,97704.47
2019-05-16T13:42:51.317Z,97700.47
2019-05-16T13:45:22.285Z,97700.34
2019-05-16T13:47:53.523Z,97694.16
2019-05-16T13:50:27.080Z,97690.55
2019-05-16T13:52:58.277Z,97694.65
2019-05-16T13:55:29.733Z,97687.12
2019-05-16T13:58:00.905Z,97687.39
2019-05-16T14:00:31.895Z,97686.74
2019-05-16T14:03:03.002Z,97684.59
2019-05-16T14:05:34.050Z,97683.42
2019-05-16T14:08:06.817Z,97685.92
2019-05-16T14:10:38.028Z,97678.31
2019-05-16T14:13:08.128Z,97678.46
2019-05-16T14:15:39.202Z,97678.66
2019-05-16T14:18:10.353Z,97682.42
2019-05-16T14:20:41.571Z,97680.17
2019-05-16T14:23:12.610Z,97679.33
2019-05-16T14:25:47.696Z,97674.98
2019-05-16T14:28:17.528Z,97680.19
2019-05-16T14:30:48.792Z,97675.89
2019-05-16T14:33:19.785Z,97674.94
2019-05-16T14:35:51.045Z,97677.66
2019-05-16T14:38:22.014Z,97666.00
2019-05-16T14:40:53.287Z,97671.50
2019-05-16T14:43:24.213Z,97671.37
2019-05-16T14:45:57.218Z,97666.23
2019-05-16T14:48:28.260Z,97669.73
2019-05-16T14:50:58.378Z,97668.67
2019-05-16T14:53:29.528Z,97665.91
2019-05-16T14:56:02.207Z,97664.98
2019-05-16T14:58:33.389Z,97664.69
2019-05-16T15:01:07.159Z,97661.37
2019-05-16T15:03:37.356Z,97668.98
2019-05-16T15:06:09.056Z,97663.56
2019-05-16T15:08:40.242Z,97665.41
2019-05-16T15:11:14.467Z,97668.81
2019-05-16T15:13:44.056Z,97664.02
2019-05-16T15:16:16.887Z,97661.11
2019-05-16T15:18:47.953Z,97663.69
2019-05-16T15:21:18.891Z,97667.77
2019-05-16T15:23:49.003Z,97662.80
2019-05-16T15:26:20.305Z,97664.02
2019-05-16T15:28:51.453Z,97668.16
2019-05-16T15:31:22.734Z,97667.60
2019-05-16T15:33:53.683Z,97661.89
2019-05-16T15:36:27.052Z,97662.52
2019-05-16T15:38:59.597Z,97655.52
2019-05-16T15:41:30.530Z,97657.81
2019-05-16T15:44:01.523Z,97655.73
2019-05-16T15:46:37.055Z,97655.61
2019-05-16T15:49:11.100Z,97653.97
2019-05-16T15:51:42.788Z,97653.52
2019-05-16T15:54:17.921Z,97644.59
2019-05-16T15:56:50.747Z,97646.41
2019-05-16T15:59:21.884Z,97643.75
2019-05-16T16:01:52.110Z,97641.60
2019-05-16T16:04:27.053Z,97643.52
2019-05-16T16:06:58.313Z,97636.63
2019-05-16T16:09:29.436Z,97638.50
2019-05-16T16:12:00.508Z,97637.54
2019-05-16T16:14:31.803Z,97633.28
2019-05-16T16:17:02.958Z,97632.56
2019-05-16T16:19:34.350Z,97637.03
2019-05-16T16:22:07.670Z,97629.57
2019-05-16T16:24:38.550Z,97626.79
2019-05-16T16:27:09.656Z,97625.43
2019-05-16T16:29:40.803Z,97625.83
2019-05-16T16:32:11.926Z,97628.94
2019-05-16T16:34:41.978Z,97626.55
2019-05-16T16:37:13.376Z,97630.63
2019-05-16T16:39:46.998Z,97625.83
2019-05-16T16:42:17.382Z,97621.98
2019-05-16T16:44:48.349Z,97621.35
2019-05-16T16:47:19.432Z,97623.16
2019-05-16T16:49:50.352Z,97619.84
2019-05-16T16:52:21.513Z,97625.55
2019-05-16T16:54:52.581Z,97624.70
2019-05-16T16:57:23.813Z,97626.67
2019-05-16T16:59:54.785Z,97630.17
2019-05-16T17:02:27.817Z,97621.66
2019-05-16T17:05:01.702Z,97621.92
2019-05-16T17:07:31.800Z,97627.63
2019-05-16T17:10:02.901Z,97628.27
2019-05-16T17:12:33.171Z,97629.78
2019-05-16T17:15:09.279Z,97620.17
2019-05-16T17:17:40.334Z,97623.61
2019-05-16T17:20:12.028Z,97629.14
2019-05-16T17:22:42.997Z,97627.56
2019-05-16T17:25:14.803Z,97629.19
2019-05-16T17:27:46.811Z,97631.97
2019-05-16T17:30:20.405Z,97632.23
2019-05-16T17:32:51.551Z,97633.61
2019-05-16T17:35:22.812Z,97625.02
2019-05-16T17:37:53.811Z,97626.33
2019-05-16T17:40:27.311Z,97629.94
2019-05-16T17:42:57.853Z,97622.95
2019-05-16T17:45:28.108Z,97619.50
2019-05-16T17:47:59.359Z,97620.91
2019-05-16T17:50:30.386Z,97617.75
2019-05-16T17:53:01.595Z,97614.31
2019-05-16T17:55:32.688Z,97618.27
2019-05-16T17:58:08.437Z,97623.34
2019-05-16T18:00:36.750Z,97617.64
2019-05-16T18:03:08.169Z,97618.99
2019-05-16T18:05:39.528Z,97621.65
2019-05-16T18:08:10.635Z,97622.83
2019-05-16T18:10:41.744Z,97621.45
2019-05-16T18:13:13.235Z,97617.27
2019-05-16T18:15:44.268Z,97617.67
2019-05-16T18:18:17.483Z,97623.14
2019-05-16T18:20:58.015Z,97629.09
2019-05-16T18:23:20.225Z,97623.34
2019-05-16T18:25:51.470Z,97625.48
2019-05-16T18:28:22.837Z,97624.64
2019-05-16T18:30:56.492Z,97622.05
2019-05-16T18:33:27.724Z,97625.94
2019-05-16T18:35:59.077Z,97621.65
2019-05-16T18:38:30.139Z,97625.14
2019-05-16T18:41:01.448Z,97623.73
2019-05-16T18:43:32.573Z,97618.20
2019-05-16T18:46:03.781Z,97623.91
2019-05-16T18:48:36.634Z,97618.41
2019-05-16T18:51:07.756Z,97611.38
2019-05-16T18:53:39.941Z,97611.12
2019-05-16T18:56:10.343Z,97615.21
2019-05-16T18:58:42.982Z,97613.52
2019-05-16T19:01:14.012Z,97615.16
2019-05-16T19:03:49.022Z,97609.41
2019-05-16T19:06:24.223Z,97613.80
2019-05-16T19:08:58.400Z,97609.57
2019-05-16T19:11:32.303Z,97604.72
2019-05-16T19:14:07.831Z,97603.37
2019-05-16T19:16:43.798Z,97606.13
2019-05-16T19:19:19.383Z,97606.19
2019-05-16T19:21:50.416Z,97610.98
2019-05-16T19:24:21.614Z,97607.17
2019-05-16T19:26:52.548Z,97609.83
2019-05-16T19:29:23.711Z,97600.30
2019-05-16T19:31:56.969Z,97599.08
2019-05-16T19:34:28.317Z,97594.64
2019-05-16T19:36:59.719Z,97596.02
2019-05-16T19:39:30.735Z,97592.05
2019-05-16T19:42:01.981Z,97590.54
2019-05-16T19:44:33.033Z,97593.02
2019-05-16T19:47:06.825Z,97593.75
2019-05-16T19:49:37.209Z,97587.50
2019-05-16T19:52:09.061Z,97587.23
2019-05-16T19:54:40.211Z,97590.11
2019-05-16T19:57:11.615Z,97586.73
2019-05-16T19:59:42.688Z,97588.81
2019-05-16T20:02:13.999Z,97587.97
2019-05-16T20:04:46.941Z,97590.89
2019-05-16T20:07:17.884Z,97587.66
2019-05-16T20:09:51.047Z,97588.35
2019-05-16T20:12:21.248Z,97580.56
2019-05-16T20:15:07.033Z,97586.88
2019-05-16T20:17:26.963Z,97578.24
2019-05-16T20:19:58.181Z,97578.24
2019-05-16T20:22:29.093Z,97580.50
2019-05-16T20:25:05.837Z,97585.12
2019-05-16T20:27:37.100Z,97581.08
2019-05-16T20:30:08.917Z,97584.40
2019-05-16T20:32:39.911Z,97576.48
2019-05-16T20:35:11.652Z,97573.74
2019-05-16T20:37:42.617Z,97569.79
2019-05-16T20:40:17.134Z,97573.89
2019-05-16T20:42:47.645Z,97568.03
2019-05-16T20:45:18.537Z,97565.25
2019-05-16T20:47:50.088Z,97561.02
2019-05-16T20:50:21.045Z,97562.83
2019-05-16T20:52:52.147Z,97565.82
2019-05-16T20:55:23.204Z,97565.31
2019-05-16T20:57:57.355Z,97564.34
2019-05-16T21:00:27.320Z,97566.40
2019-05-16T21:02:58.686Z,97562.78
2019-05-16T21:05:29.692Z,97560.13
2019-05-16T21:08:00.948Z,97565.62
2019-05-16T21:10:31.927Z,97556.41
2019-05-16T21:13:03.316Z,97554.27
2019-05-16T21:15:34.307Z,97547.71
2019-05-16T21:18:07.519Z,97546.30
2019-05-16T21:20:39.074Z,97542.34
2019-05-16T21:23:09.125Z,97544.16
2019-05-16T21:25:40.270Z,97540.59
2019-05-16T21:28:13.787Z,97536.48
2019-05-16T21:30:44.273Z,97538.23
2019-05-16T21:33:16.552Z,97540.31
2019-05-16T21:35:48.255Z,97534.79
2019-05-16T21:38:19.276Z,97532.58
2019-05-16T21:40:50.526Z,97529.75
2019-05-16T21:43:21.525Z,97529.75
2019-05-16T21:45:52.935Z,97537.78
2019-05-16T21:48:23.921Z,97536.75
2019-05-16T21:50:56.997Z,97530.31
2019-05-16T21:53:30.107Z,97528.48
2019-05-16T21:55:59.633Z,97520.69
2019-05-16T21:58:30.804Z,97523.77
2019-05-16T22:01:03.146Z,97525.25
2019-05-16T22:03:36.715Z,97521.56
2019-05-16T22:06:09.172Z,97520.39
2019-05-16T22:08:40.469Z,97516.55
2019-05-16T22:11:11.422Z,97514.29
2019-05-16T22:13:42.719Z,97517.28
2019-05-16T22:16:13.782Z,97515.38
2019-05-16T22:18:47.420Z,97512.02
2019-05-16T22:21:17.917Z,97510.58
2019-05-16T22:23:49.148Z,97512.36
2019-05-16T22:26:20.058Z,97514.47
2019-05-16T22:28:52.801Z,97513.11
2019-05-16T22:31:23.938Z,97515.02
2019-05-16T22:33:53.985Z,97514.95
2019-05-16T22:36:26.579Z,97513.66
2019-05-16T22:38:59.669Z,97511.97
2019-05-16T22:41:30.707Z,97511.18
2019-05-16T22:44:01.854Z,97501.19
2019-05-16T22:46:32.930Z,97501.25
2019-05-16T22:49:03.890Z,97501.87
2019-05-16T22:51:36.605Z,97495.94
2019-05-16T22:54:07.886Z,97495.00
2019-05-16T22:56:39.364Z,97491.44
2019-05-16T22:59:10.405Z,97484.25
2019-05-16T23:01:41.719Z,97483.53
2019-05-16T23:04:12.701Z,97489.17
2019-05-16T23:06:42.841Z,97476.80
2019-05-16T23:09:16.288Z,97478.55
2019-05-16T23:11:46.859Z,97478.61
2019-05-16T23:14:18.163Z,97478.67
2019-05-16T23:16:49.300Z,97478.00
2019-05-16T23:19:20.461Z,97470.73
2019-05-16T23:21:51.539Z,97469.38
2019-05-16T23:24:22.821Z,97469.77
2019-05-16T23:26:53.735Z,97468.52
2019-05-16T23:29:27.194Z,97459.89
2019-05-16T23:31:57.721Z,97459.95
2019-05-16T23:34:28.976Z,97455.67
2019-05-16T23:37:00.069Z,97457.88
2019-05-16T23:39:30.283Z,97451.09
2019-05-16T23:42:01.703Z,97451.66
2019-05-16T23:44:32.700Z,97454.70
2019-05-16T23:47:03.831Z,97450.42
2019-05-16T23:49:36.642Z,97443.23
2019-05-16T23:52:07.821Z,97440.82
2019-05-16T23:54:38.738Z,97440.25
2019-05-16T23:57:09.863Z,97437.78
2019-05-16T23:59:41.345Z,97435.63
